sensor_id;sensor_type;location;lat;lon;timestamp;temperature;humidity
20512;DHT22;10414;52.074;5.126;2023-10-09T00:01:51;16.40;99.90
20512;DHT22;10414;52.074;5.126;2023-10-09T00:04:19;16.50;99.90
20512;DHT22;10414;52.074;5.126;2023-10-09T00:06:51;16.60;99.90
20512;DHT22;10414;52.074;5.126;2023-10-09T00:09:19;16.40;99.90
20512;DHT22;10414;52.074;5.126;2023-10-09T00:11:58;16.30;99.90
20512;DHT22;10414;52.074;5.126;2023-10-09T00:14:32;16.30;99.90
20512;DHT22;10414;52.074;5.126;2023-10-09T00:16:59;16.20;99.90
20512;DHT22;10414;52.074;5.126;2023-10-09T00:19:42;16.20;99.90
20512;DHT22;10414;52.074;5.126;2023-10-09T00:22:13;16.30;99.90
20512;DHT22;10414;52.074;5.126;2023-10-09T00:24:52;16.40;99.90
20512;DHT22;10414;52.074;5.126;2023-10-09T00:27:37;16.50;99.90
20512;DHT22;10414;52.074;5.126;2023-10-09T00:30:08;16.50;99.90
20512;DHT22;10414;52.074;5.126;2023-10-09T00:32:35;16.70;99.90
20512;DHT22;10414;52.074;5.126;2023-10-09T00:35:08;16.70;99.90
20512;DHT22;10414;52.074;5.126;2023-10-09T00:38:02;16.70;99.90
20512;DHT22;10414;52.074;5.126;2023-10-09T00:40:34;16.70;99.90
20512;DHT22;10414;52.074;5.126;2023-10-09T00:43:11;16.70;99.90
20512;DHT22;10414;52.074;5.126;2023-10-09T00:45:39;16.70;99.90
20512;DHT22;10414;52.074;5.126;2023-10-09T00:48:12;16.60;99.90
20512;DHT22;10414;52.074;5.126;2023-10-09T00:50:48;16.70;99.90
20512;DHT22;10414;52.074;5.126;2023-10-09T00:53:20;16.70;99.90
20512;DHT22;10414;52.074;5.126;2023-10-09T00:55:57;16.70;99.90
20512;DHT22;10414;52.074;5.126;2023-10-09T00:58:31;16.80;99.90
20512;DHT22;10414;52.074;5.126;2023-10-09T01:01:01;16.80;99.90
20512;DHT22;10414;52.074;5.126;2023-10-09T01:03:30;16.90;99.90
20512;DHT22;10414;52.074;5.126;2023-10-09T01:06:01;16.80;99.90
20512;DHT22;10414;52.074;5.126;2023-10-09T01:08:43;16.90;99.90
20512;DHT22;10414;52.074;5.126;2023-10-09T01:11:19;17.10;99.90
20512;DHT22;10414;52.074;5.126;2023-10-09T01:13:49;16.90;99.90
20512;DHT22;10414;52.074;5.126;2023-10-09T01:16:23;16.90;99.90
20512;DHT22;10414;52.074;5.126;2023-10-09T01:18:51;16.90;99.90
20512;DHT22;10414;52.074;5.126;2023-10-09T01:21:21;16.70;99.90
20512;DHT22;10414;52.074;5.126;2023-10-09T01:23:53;16.80;99.90
20512;DHT22;10414;52.074;5.126;2023-10-09T01:26:29;16.90;99.90
20512;DHT22;10414;52.074;5.126;2023-10-09T01:29:00;16.80;99.90
20512;DHT22;10414;52.074;5.126;2023-10-09T01:31:27;16.90;99.90
20512;DHT22;10414;52.074;5.126;2023-10-09T01:34:09;17.00;99.90
20512;DHT22;10414;52.074;5.126;2023-10-09T01:36:36;17.00;99.90
20512;DHT22;10414;52.074;5.126;2023-10-09T01:39:07;17.10;99.90
20512;DHT22;10414;52.074;5.126;2023-10-09T01:41:47;17.20;99.90
20512;DHT22;10414;52.074;5.126;2023-10-09T01:44:15;17.20;99.90
20512;DHT22;10414;52.074;5.126;2023-10-09T01:46:42;17.30;99.90
20512;DHT22;10414;52.074;5.126;2023-10-09T01:49:12;17.30;99.90
20512;DHT22;10414;52.074;5.126;2023-10-09T01:51:46;17.30;99.90
20512;DHT22;10414;52.074;5.126;2023-10-09T01:54:17;17.30;99.90
20512;DHT22;10414;52.074;5.126;2023-10-09T01:56:59;17.20;99.90
20512;DHT22;10414;52.074;5.126;2023-10-09T01:59:31;17.30;99.90
20512;DHT22;10414;52.074;5.126;2023-10-09T02:02:00;17.20;99.90
20512;DHT22;10414;52.074;5.126;2023-10-09T02:04:38;17.20;99.90
20512;DHT22;10414;52.074;5.126;2023-10-09T02:07:06;17.20;99.90
20512;DHT22;10414;52.074;5.126;2023-10-09T02:09:35;17.20;99.90
20512;DHT22;10414;52.074;5.126;2023-10-09T02:12:10;17.30;99.90
20512;DHT22;10414;52.074;5.126;2023-10-09T02:14:38;17.40;99.90
20512;DHT22;10414;52.074;5.126;2023-10-09T02:17:07;17.40;99.90
20512;DHT22;10414;52.074;5.126;2023-10-09T02:19:44;17.30;99.90
20512;DHT22;10414;52.074;5.126;2023-10-09T02:22:18;17.10;99.90
20512;DHT22;10414;52.074;5.126;2023-10-09T02:24:47;17.10;99.90
20512;DHT22;10414;52.074;5.126;2023-10-09T02:27:17;17.20;99.90
20512;DHT22;10414;52.074;5.126;2023-10-09T02:30:07;17.10;99.90
20512;DHT22;10414;52.074;5.126;2023-10-09T02:32:43;17.40;99.90
20512;DHT22;10414;52.074;5.126;2023-10-09T02:35:15;17.20;99.90
20512;DHT22;10414;52.074;5.126;2023-10-09T02:37:57;17.30;99.90
20512;DHT22;10414;52.074;5.126;2023-10-09T02:40:28;17.50;99.90
20512;DHT22;10414;52.074;5.126;2023-10-09T02:42:58;17.70;99.90
20512;DHT22;10414;52.074;5.126;2023-10-09T02:45:25;17.70;99.90
20512;DHT22;10414;52.074;5.126;2023-10-09T02:47:55;17.70;99.90
20512;DHT22;10414;52.074;5.126;2023-10-09T02:50:25;17.60;99.90
20512;DHT22;10414;52.074;5.126;2023-10-09T02:52:54;17.50;99.90
20512;DHT22;10414;52.074;5.126;2023-10-09T02:55:27;17.60;99.90
20512;DHT22;10414;52.074;5.126;2023-10-09T02:57:56;17.50;99.90
20512;DHT22;10414;52.074;5.126;2023-10-09T03:00:32;17.70;99.90
20512;DHT22;10414;52.074;5.126;2023-10-09T03:03:03;17.60;99.90
20512;DHT22;10414;52.074;5.126;2023-10-09T03:05:32;17.60;99.90
20512;DHT22;10414;52.074;5.126;2023-10-09T03:08:01;17.60;99.90
20512;DHT22;10414;52.074;5.126;2023-10-09T03:10:30;17.40;99.90
20512;DHT22;10414;52.074;5.126;2023-10-09T03:12:59;17.60;99.90
20512;DHT22;10414;52.074;5.126;2023-10-09T03:15:28;17.40;99.90
20512;DHT22;10414;52.074;5.126;2023-10-09T03:18:00;17.20;99.90
20512;DHT22;10414;52.074;5.126;2023-10-09T03:20:28;17.20;99.90
20512;DHT22;10414;52.074;5.126;2023-10-09T03:22:56;17.10;99.90
20512;DHT22;10414;52.074;5.126;2023-10-09T03:25:23;17.20;99.90
20512;DHT22;10414;52.074;5.126;2023-10-09T03:27:51;17.20;99.90
20512;DHT22;10414;52.074;5.126;2023-10-09T03:30:21;17.20;99.90
20512;DHT22;10414;52.074;5.126;2023-10-09T03:32:49;17.30;99.90
20512;DHT22;10414;52.074;5.126;2023-10-09T03:35:17;17.40;99.90
20512;DHT22;10414;52.074;5.126;2023-10-09T03:37:52;17.30;99.90
20512;DHT22;10414;52.074;5.126;2023-10-09T03:40:22;17.20;99.90
20512;DHT22;10414;52.074;5.126;2023-10-09T03:42:54;17.20;99.90
20512;DHT22;10414;52.074;5.126;2023-10-09T03:45:21;17.30;99.90
20512;DHT22;10414;52.074;5.126;2023-10-09T03:47:56;17.30;99.90
20512;DHT22;10414;52.074;5.126;2023-10-09T03:50:28;17.40;99.90
20512;DHT22;10414;52.074;5.126;2023-10-09T03:53:02;17.50;99.90
20512;DHT22;10414;52.074;5.126;2023-10-09T03:55:32;17.60;99.90
20512;DHT22;10414;52.074;5.126;2023-10-09T03:58:00;17.70;99.90
20512;DHT22;10414;52.074;5.126;2023-10-09T04:00:30;17.70;99.90
20512;DHT22;10414;52.074;5.126;2023-10-09T04:03:06;17.50;99.90
20512;DHT22;10414;52.074;5.126;2023-10-09T04:05:37;17.30;99.90
20512;DHT22;10414;52.074;5.126;2023-10-09T04:08:08;17.30;99.90
20512;DHT22;10414;52.074;5.126;2023-10-09T04:10:38;17.20;99.90
20512;DHT22;10414;52.074;5.126;2023-10-09T04:13:18;17.30;99.90
20512;DHT22;10414;52.074;5.126;2023-10-09T04:15:50;17.40;99.90
20512;DHT22;10414;52.074;5.126;2023-10-09T04:18:19;17.40;99.90
20512;DHT22;10414;52.074;5.126;2023-10-09T04:20:54;17.60;99.90
20512;DHT22;10414;52.074;5.126;2023-10-09T04:23:39;17.70;99.90
20512;DHT22;10414;52.074;5.126;2023-10-09T04:26:19;17.40;99.90
20512;DHT22;10414;52.074;5.126;2023-10-09T04:28:48;17.40;99.90
20512;DHT22;10414;52.074;5.126;2023-10-09T04:31:18;17.50;99.90
20512;DHT22;10414;52.074;5.126;2023-10-09T04:33:48;17.40;99.90
20512;DHT22;10414;52.074;5.126;2023-10-09T04:36:23;17.20;99.90
20512;DHT22;10414;52.074;5.126;2023-10-09T04:38:54;17.30;99.90
20512;DHT22;10414;52.074;5.126;2023-10-09T04:41:41;17.50;99.90
20512;DHT22;10414;52.074;5.126;2023-10-09T04:44:19;17.80;99.90
20512;DHT22;10414;52.074;5.126;2023-10-09T04:46:49;17.60;99.90
20512;DHT22;10414;52.074;5.126;2023-10-09T04:49:32;17.40;99.90
20512;DHT22;10414;52.074;5.126;2023-10-09T04:52:15;17.50;99.90
20512;DHT22;10414;52.074;5.126;2023-10-09T04:54:56;17.60;99.90
20512;DHT22;10414;52.074;5.126;2023-10-09T04:57:43;17.70;99.90
20512;DHT22;10414;52.074;5.126;2023-10-09T05:00:27;17.70;99.90
20512;DHT22;10414;52.074;5.126;2023-10-09T05:03:11;17.60;99.90
20512;DHT22;10414;52.074;5.126;2023-10-09T05:05:50;17.70;99.90
20512;DHT22;10414;52.074;5.126;2023-10-09T05:08:26;17.70;99.90
20512;DHT22;10414;52.074;5.126;2023-10-09T05:10:59;17.60;99.90
20512;DHT22;10414;52.074;5.126;2023-10-09T05:13:41;17.60;99.90
20512;DHT22;10414;52.074;5.126;2023-10-09T05:16:24;17.60;99.90
20512;DHT22;10414;52.074;5.126;2023-10-09T05:18:51;17.70;99.90
20512;DHT22;10414;52.074;5.126;2023-10-09T05:21:22;17.70;99.90
20512;DHT22;10414;52.074;5.126;2023-10-09T05:24:11;17.90;99.90
20512;DHT22;10414;52.074;5.126;2023-10-09T05:26:49;17.90;99.90
20512;DHT22;10414;52.074;5.126;2023-10-09T05:29:38;17.80;99.90
20512;DHT22;10414;52.074;5.126;2023-10-09T05:32:15;17.80;99.90
20512;DHT22;10414;52.074;5.126;2023-10-09T05:34:53;17.80;99.90
20512;DHT22;10414;52.074;5.126;2023-10-09T05:37:41;17.70;99.90
20512;DHT22;10414;52.074;5.126;2023-10-09T05:40:12;17.60;99.90
20512;DHT22;10414;52.074;5.126;2023-10-09T05:42:48;17.60;99.90
20512;DHT22;10414;52.074;5.126;2023-10-09T05:45:26;17.60;99.90
20512;DHT22;10414;52.074;5.126;2023-10-09T05:48:12;17.50;99.90
20512;DHT22;10414;52.074;5.126;2023-10-09T05:50:52;17.40;99.90
20512;DHT22;10414;52.074;5.126;2023-10-09T05:53:58;17.70;99.90
20512;DHT22;10414;52.074;5.126;2023-10-09T05:56:43;17.70;99.90
20512;DHT22;10414;52.074;5.126;2023-10-09T05:59:27;17.60;99.90
20512;DHT22;10414;52.074;5.126;2023-10-09T06:02:08;17.70;99.90
20512;DHT22;10414;52.074;5.126;2023-10-09T06:05:06;17.80;99.90
20512;DHT22;10414;52.074;5.126;2023-10-09T06:07:53;18.00;99.90
20512;DHT22;10414;52.074;5.126;2023-10-09T06:10:33;17.70;99.90
20512;DHT22;10414;52.074;5.126;2023-10-09T06:13:09;17.60;99.90
20512;DHT22;10414;52.074;5.126;2023-10-09T06:15:49;17.80;99.90
20512;DHT22;10414;52.074;5.126;2023-10-09T06:18:33;17.80;99.90
20512;DHT22;10414;52.074;5.126;2023-10-09T06:21:02;17.90;99.90
20512;DHT22;10414;52.074;5.126;2023-10-09T06:23:55;18.00;99.90
20512;DHT22;10414;52.074;5.126;2023-10-09T06:26:45;18.00;99.90
20512;DHT22;10414;52.074;5.126;2023-10-09T06:29:36;18.10;99.90
20512;DHT22;10414;52.074;5.126;2023-10-09T06:32:06;18.00;99.90
20512;DHT22;10414;52.074;5.126;2023-10-09T06:35:01;18.10;99.90
20512;DHT22;10414;52.074;5.126;2023-10-09T06:37:47;17.90;99.90
20512;DHT22;10414;52.074;5.126;2023-10-09T06:40:33;18.00;99.90
20512;DHT22;10414;52.074;5.126;2023-10-09T06:43:28;18.10;99.90
20512;DHT22;10414;52.074;5.126;2023-10-09T06:46:02;18.20;99.90
20512;DHT22;10414;52.074;5.126;2023-10-09T06:48:43;18.40;99.90
20512;DHT22;10414;52.074;5.126;2023-10-09T06:51:21;18.70;99.90
20512;DHT22;10414;52.074;5.126;2023-10-09T06:54:07;18.90;99.90
20512;DHT22;10414;52.074;5.126;2023-10-09T06:56:43;19.00;99.90
20512;DHT22;10414;52.074;5.126;2023-10-09T06:59:28;19.00;99.90
20512;DHT22;10414;52.074;5.126;2023-10-09T07:02:07;18.80;99.90
20512;DHT22;10414;52.074;5.126;2023-10-09T07:04:51;18.60;99.90
20512;DHT22;10414;52.074;5.126;2023-10-09T07:07:21;18.40;99.90
20512;DHT22;10414;52.074;5.126;2023-10-09T07:09:52;18.40;99.90
20512;DHT22;10414;52.074;5.126;2023-10-09T07:12:36;18.50;99.90
20512;DHT22;10414;52.074;5.126;2023-10-09T07:15:10;18.50;99.90
20512;DHT22;10414;52.074;5.126;2023-10-09T07:17:54;18.40;99.90
20512;DHT22;10414;52.074;5.126;2023-10-09T07:20:41;18.60;99.90
20512;DHT22;10414;52.074;5.126;2023-10-09T07:23:11;18.50;99.90
20512;DHT22;10414;52.074;5.126;2023-10-09T07:25:42;18.50;99.90
20512;DHT22;10414;52.074;5.126;2023-10-09T07:28:21;18.50;99.90
20512;DHT22;10414;52.074;5.126;2023-10-09T07:31:08;18.40;99.90
20512;DHT22;10414;52.074;5.126;2023-10-09T07:33:50;18.60;99.90
20512;DHT22;10414;52.074;5.126;2023-10-09T07:36:22;18.50;99.90
20512;DHT22;10414;52.074;5.126;2023-10-09T07:39:05;18.60;99.90
20512;DHT22;10414;52.074;5.126;2023-10-09T07:41:43;18.50;99.90
20512;DHT22;10414;52.074;5.126;2023-10-09T07:44:27;18.60;99.90
20512;DHT22;10414;52.074;5.126;2023-10-09T07:47:08;18.90;99.90
20512;DHT22;10414;52.074;5.126;2023-10-09T07:49:54;19.70;99.90
20512;DHT22;10414;52.074;5.126;2023-10-09T07:52:24;20.10;99.90
20512;DHT22;10414;52.074;5.126;2023-10-09T07:54:52;20.30;99.90
20512;DHT22;10414;52.074;5.126;2023-10-09T07:57:28;20.70;99.90
20512;DHT22;10414;52.074;5.126;2023-10-09T08:00:05;20.80;99.90
20512;DHT22;10414;52.074;5.126;2023-10-09T08:02:59;21.20;99.90
20512;DHT22;10414;52.074;5.126;2023-10-09T08:05:26;21.00;99.90
20512;DHT22;10414;52.074;5.126;2023-10-09T08:07:59;21.00;99.90
20512;DHT22;10414;52.074;5.126;2023-10-09T08:10:44;20.90;99.90
20512;DHT22;10414;52.074;5.126;2023-10-09T08:13:26;20.60;99.90
20512;DHT22;10414;52.074;5.126;2023-10-09T08:16:10;20.50;99.90
20512;DHT22;10414;52.074;5.126;2023-10-09T08:18:45;20.40;99.90
20512;DHT22;10414;52.074;5.126;2023-10-09T08:21:11;20.40;99.90
20512;DHT22;10414;52.074;5.126;2023-10-09T08:24:07;20.30;99.90
20512;DHT22;10414;52.074;5.126;2023-10-09T08:26:53;20.50;99.90
20512;DHT22;10414;52.074;5.126;2023-10-09T08:29:43;20.40;99.90
20512;DHT22;10414;52.074;5.126;2023-10-09T08:32:14;20.80;99.90
20512;DHT22;10414;52.074;5.126;2023-10-09T08:35:04;21.30;99.90
20512;DHT22;10414;52.074;5.126;2023-10-09T08:37:36;20.90;99.90
20512;DHT22;10414;52.074;5.126;2023-10-09T08:40:04;21.00;99.90
20512;DHT22;10414;52.074;5.126;2023-10-09T08:42:33;21.50;99.90
20512;DHT22;10414;52.074;5.126;2023-10-09T08:45:04;21.50;99.90
20512;DHT22;10414;52.074;5.126;2023-10-09T08:47:31;21.70;99.90
20512;DHT22;10414;52.074;5.126;2023-10-09T08:49:59;22.00;99.90
20512;DHT22;10414;52.074;5.126;2023-10-09T08:52:27;22.20;99.90
20512;DHT22;10414;52.074;5.126;2023-10-09T08:54:54;22.70;99.90
20512;DHT22;10414;52.074;5.126;2023-10-09T08:57:21;23.60;99.90
20512;DHT22;10414;52.074;5.126;2023-10-09T08:59:48;24.80;99.90
20512;DHT22;10414;52.074;5.126;2023-10-09T09:02:16;25.60;99.90
20512;DHT22;10414;52.074;5.126;2023-10-09T09:04:43;25.90;99.90
20512;DHT22;10414;52.074;5.126;2023-10-09T09:07:25;25.20;99.90
20512;DHT22;10414;52.074;5.126;2023-10-09T09:09:55;25.20;99.90
20512;DHT22;10414;52.074;5.126;2023-10-09T09:12:24;25.00;99.90
20512;DHT22;10414;52.074;5.126;2023-10-09T09:14:58;24.50;99.90
20512;DHT22;10414;52.074;5.126;2023-10-09T09:17:32;23.90;99.90
20512;DHT22;10414;52.074;5.126;2023-10-09T09:20:19;23.70;99.90
20512;DHT22;10414;52.074;5.126;2023-10-09T09:22:52;23.30;99.90
20512;DHT22;10414;52.074;5.126;2023-10-09T09:25:20;23.80;99.90
20512;DHT22;10414;52.074;5.126;2023-10-09T09:27:50;23.60;99.90
20512;DHT22;10414;52.074;5.126;2023-10-09T09:30:24;23.90;99.90
20512;DHT22;10414;52.074;5.126;2023-10-09T09:32:59;23.90;99.90
20512;DHT22;10414;52.074;5.126;2023-10-09T09:35:56;24.10;99.90
20512;DHT22;10414;52.074;5.126;2023-10-09T09:38:26;23.90;99.90
20512;DHT22;10414;52.074;5.126;2023-10-09T09:40:58;23.40;99.90
20512;DHT22;10414;52.074;5.126;2023-10-09T09:43:29;23.30;99.90
20512;DHT22;10414;52.074;5.126;2023-10-09T09:46:01;23.20;99.90
20512;DHT22;10414;52.074;5.126;2023-10-09T09:48:37;23.10;99.90
20512;DHT22;10414;52.074;5.126;2023-10-09T09:51:15;23.10;99.90
20512;DHT22;10414;52.074;5.126;2023-10-09T09:53:43;23.50;99.90
20512;DHT22;10414;52.074;5.126;2023-10-09T09:56:16;22.90;99.90
20512;DHT22;10414;52.074;5.126;2023-10-09T09:58:50;22.70;99.90
20512;DHT22;10414;52.074;5.126;2023-10-09T10:01:19;22.80;99.90
20512;DHT22;10414;52.074;5.126;2023-10-09T10:03:55;22.90;99.90
20512;DHT22;10414;52.074;5.126;2023-10-09T10:06:25;23.20;99.90
20512;DHT22;10414;52.074;5.126;2023-10-09T10:09:03;23.90;99.90
20512;DHT22;10414;52.074;5.126;2023-10-09T10:11:42;24.00;99.90
20512;DHT22;10414;52.074;5.126;2023-10-09T10:14:10;23.40;99.90
20512;DHT22;10414;52.074;5.126;2023-10-09T10:17:11;23.60;99.90
20512;DHT22;10414;52.074;5.126;2023-10-09T10:20:03;23.70;99.90
20512;DHT22;10414;52.074;5.126;2023-10-09T10:22:48;24.00;99.90
20512;DHT22;10414;52.074;5.126;2023-10-09T10:25:37;23.80;99.90
20512;DHT22;10414;52.074;5.126;2023-10-09T10:28:17;23.60;99.90
20512;DHT22;10414;52.074;5.126;2023-10-09T10:30:54;23.60;99.90
20512;DHT22;10414;52.074;5.126;2023-10-09T10:33:23;23.70;99.90
20512;DHT22;10414;52.074;5.126;2023-10-09T10:35:54;24.10;99.90
20512;DHT22;10414;52.074;5.126;2023-10-09T10:38:25;24.20;99.90
20512;DHT22;10414;52.074;5.126;2023-10-09T10:41:16;24.10;99.90
20512;DHT22;10414;52.074;5.126;2023-10-09T10:43:43;23.80;99.90
20512;DHT22;10414;52.074;5.126;2023-10-09T10:46:49;23.70;99.90
20512;DHT22;10414;52.074;5.126;2023-10-09T10:49:19;23.90;99.90
20512;DHT22;10414;52.074;5.126;2023-10-09T10:51:49;23.70;99.90
20512;DHT22;10414;52.074;5.126;2023-10-09T10:54:27;23.60;99.90
20512;DHT22;10414;52.074;5.126;2023-10-09T10:57:14;23.90;99.90
20512;DHT22;10414;52.074;5.126;2023-10-09T10:59:54;24.40;99.90
20512;DHT22;10414;52.074;5.126;2023-10-09T11:02:39;25.00;99.90
20512;DHT22;10414;52.074;5.126;2023-10-09T11:05:07;24.70;99.90
20512;DHT22;10414;52.074;5.126;2023-10-09T11:07:51;24.70;99.90
20512;DHT22;10414;52.074;5.126;2023-10-09T11:10:25;24.60;99.90
20512;DHT22;10414;52.074;5.126;2023-10-09T11:12:58;24.70;99.90
20512;DHT22;10414;52.074;5.126;2023-10-09T11:15:42;24.20;99.90
20512;DHT22;10414;52.074;5.126;2023-10-09T11:18:22;24.40;99.90
20512;DHT22;10414;52.074;5.126;2023-10-09T11:20:53;24.60;99.90
20512;DHT22;10414;52.074;5.126;2023-10-09T11:23:45;24.40;99.90
20512;DHT22;10414;52.074;5.126;2023-10-09T11:26:25;24.20;99.90
20512;DHT22;10414;52.074;5.126;2023-10-09T11:29:08;23.70;99.90
20512;DHT22;10414;52.074;5.126;2023-10-09T11:31:49;23.70;99.90
20512;DHT22;10414;52.074;5.126;2023-10-09T11:34:23;23.70;99.90
20512;DHT22;10414;52.074;5.126;2023-10-09T11:36:58;24.00;99.90
20512;DHT22;10414;52.074;5.126;2023-10-09T11:39:28;24.10;99.90
20512;DHT22;10414;52.074;5.126;2023-10-09T11:42:06;24.40;99.90
20512;DHT22;10414;52.074;5.126;2023-10-09T11:44:39;24.10;99.90
20512;DHT22;10414;52.074;5.126;2023-10-09T11:47:07;24.10;99.90
20512;DHT22;10414;52.074;5.126;2023-10-09T11:49:58;24.20;99.90
20512;DHT22;10414;52.074;5.126;2023-10-09T11:52:57;24.30;99.90
20512;DHT22;10414;52.074;5.126;2023-10-09T11:55:37;24.20;99.90
20512;DHT22;10414;52.074;5.126;2023-10-09T11:58:04;23.70;99.90
20512;DHT22;10414;52.074;5.126;2023-10-09T12:00:34;23.60;99.90
20512;DHT22;10414;52.074;5.126;2023-10-09T12:03:11;23.50;99.90
20512;DHT22;10414;52.074;5.126;2023-10-09T12:05:38;23.50;99.90
20512;DHT22;10414;52.074;5.126;2023-10-09T12:08:09;23.50;99.90
20512;DHT22;10414;52.074;5.126;2023-10-09T12:10:39;23.70;99.90
20512;DHT22;10414;52.074;5.126;2023-10-09T12:13:06;24.00;99.90
20512;DHT22;10414;52.074;5.126;2023-10-09T12:15:33;23.70;99.90
20512;DHT22;10414;52.074;5.126;2023-10-09T12:18:06;23.70;99.90
20512;DHT22;10414;52.074;5.126;2023-10-09T12:20:41;23.50;99.90
20512;DHT22;10414;52.074;5.126;2023-10-09T12:23:10;23.70;99.90
20512;DHT22;10414;52.074;5.126;2023-10-09T12:25:43;23.70;99.90
20512;DHT22;10414;52.074;5.126;2023-10-09T12:28:11;23.60;99.90
20512;DHT22;10414;52.074;5.126;2023-10-09T12:30:46;23.70;99.90
20512;DHT22;10414;52.074;5.126;2023-10-09T12:33:16;23.40;99.90
20512;DHT22;10414;52.074;5.126;2023-10-09T12:35:43;23.40;99.90
20512;DHT22;10414;52.074;5.126;2023-10-09T12:38:11;23.30;99.90
20512;DHT22;10414;52.074;5.126;2023-10-09T12:40:45;23.00;99.90
20512;DHT22;10414;52.074;5.126;2023-10-09T12:43:19;22.90;99.90
20512;DHT22;10414;52.074;5.126;2023-10-09T12:45:51;23.00;99.90
20512;DHT22;10414;52.074;5.126;2023-10-09T12:48:22;23.20;99.90
20512;DHT22;10414;52.074;5.126;2023-10-09T12:50:49;22.90;99.90
20512;DHT22;10414;52.074;5.126;2023-10-09T12:53:19;22.60;99.90
20512;DHT22;10414;52.074;5.126;2023-10-09T12:55:47;22.60;99.90
20512;DHT22;10414;52.074;5.126;2023-10-09T12:58:15;22.30;99.90
20512;DHT22;10414;52.074;5.126;2023-10-09T13:00:43;22.30;99.90
20512;DHT22;10414;52.074;5.126;2023-10-09T13:03:14;22.50;99.90
20512;DHT22;10414;52.074;5.126;2023-10-09T13:05:46;22.40;99.90
20512;DHT22;10414;52.074;5.126;2023-10-09T13:08:20;22.10;99.90
20512;DHT22;10414;52.074;5.126;2023-10-09T13:10:51;22.00;99.90
20512;DHT22;10414;52.074;5.126;2023-10-09T13:13:27;22.20;99.90
20512;DHT22;10414;52.074;5.126;2023-10-09T13:16:11;22.30;99.90
20512;DHT22;10414;52.074;5.126;2023-10-09T13:18:40;22.60;99.90
20512;DHT22;10414;52.074;5.126;2023-10-09T13:21:08;22.60;99.90
20512;DHT22;10414;52.074;5.126;2023-10-09T13:23:35;22.40;99.90
20512;DHT22;10414;52.074;5.126;2023-10-09T13:26:13;22.40;99.90
20512;DHT22;10414;52.074;5.126;2023-10-09T13:28:54;22.40;99.90
20512;DHT22;10414;52.074;5.126;2023-10-09T13:31:23;22.40;99.90
20512;DHT22;10414;52.074;5.126;2023-10-09T13:33:53;22.50;99.90
20512;DHT22;10414;52.074;5.126;2023-10-09T13:36:21;22.40;99.90
20512;DHT22;10414;52.074;5.126;2023-10-09T13:38:56;22.40;99.90
20512;DHT22;10414;52.074;5.126;2023-10-09T13:41:24;22.50;99.90
20512;DHT22;10414;52.074;5.126;2023-10-09T13:43:54;22.00;99.90
20512;DHT22;10414;52.074;5.126;2023-10-09T13:46:23;21.70;99.90
20512;DHT22;10414;52.074;5.126;2023-10-09T13:48:50;21.80;99.90
20512;DHT22;10414;52.074;5.126;2023-10-09T13:51:18;22.00;99.90
20512;DHT22;10414;52.074;5.126;2023-10-09T13:53:49;22.10;99.90
20512;DHT22;10414;52.074;5.126;2023-10-09T13:56:17;22.30;99.90
20512;DHT22;10414;52.074;5.126;2023-10-09T13:58:50;22.30;99.90
20512;DHT22;10414;52.074;5.126;2023-10-09T14:01:17;22.40;99.90
20512;DHT22;10414;52.074;5.126;2023-10-09T14:03:56;22.30;99.90
20512;DHT22;10414;52.074;5.126;2023-10-09T14:06:23;22.40;99.90
20512;DHT22;10414;52.074;5.126;2023-10-09T14:08:58;22.50;99.90
20512;DHT22;10414;52.074;5.126;2023-10-09T14:11:25;22.80;99.90
20512;DHT22;10414;52.074;5.126;2023-10-09T14:13:53;22.80;99.90
20512;DHT22;10414;52.074;5.126;2023-10-09T14:16:22;22.90;99.90
20512;DHT22;10414;52.074;5.126;2023-10-09T14:18:54;22.90;99.90
20512;DHT22;10414;52.074;5.126;2023-10-09T14:21:23;22.50;99.90
20512;DHT22;10414;52.074;5.126;2023-10-09T14:23:51;22.40;99.90
20512;DHT22;10414;52.074;5.126;2023-10-09T14:26:20;22.20;99.90
20512;DHT22;10414;52.074;5.126;2023-10-09T14:28:47;22.30;99.90
20512;DHT22;10414;52.074;5.126;2023-10-09T14:31:16;22.30;99.90
20512;DHT22;10414;52.074;5.126;2023-10-09T14:33:49;22.50;99.90
20512;DHT22;10414;52.074;5.126;2023-10-09T14:36:18;22.60;99.90
20512;DHT22;10414;52.074;5.126;2023-10-09T14:38:47;22.30;99.90
20512;DHT22;10414;52.074;5.126;2023-10-09T14:41:19;22.40;99.90
20512;DHT22;10414;52.074;5.126;2023-10-09T14:43:50;22.60;99.90
20512;DHT22;10414;52.074;5.126;2023-10-09T14:46:20;22.70;99.90
20512;DHT22;10414;52.074;5.126;2023-10-09T14:48:51;22.30;99.90
20512;DHT22;10414;52.074;5.126;2023-10-09T14:51:20;21.90;99.90
20512;DHT22;10414;52.074;5.126;2023-10-09T14:53:53;21.90;99.90
20512;DHT22;10414;52.074;5.126;2023-10-09T14:56:23;21.90;99.90
20512;DHT22;10414;52.074;5.126;2023-10-09T14:58:55;21.70;99.90
20512;DHT22;10414;52.074;5.126;2023-10-09T15:01:25;21.80;99.90
20512;DHT22;10414;52.074;5.126;2023-10-09T15:03:55;22.20;99.90
20512;DHT22;10414;52.074;5.126;2023-10-09T15:06:25;22.20;99.90
20512;DHT22;10414;52.074;5.126;2023-10-09T15:08:55;22.10;99.90
20512;DHT22;10414;52.074;5.126;2023-10-09T15:11:23;21.80;99.90
20512;DHT22;10414;52.074;5.126;2023-10-09T15:13:51;22.00;99.90
20512;DHT22;10414;52.074;5.126;2023-10-09T15:16:19;22.20;99.90
20512;DHT22;10414;52.074;5.126;2023-10-09T15:18:54;22.20;99.90
20512;DHT22;10414;52.074;5.126;2023-10-09T15:21:23;22.50;99.90
20512;DHT22;10414;52.074;5.126;2023-10-09T15:23:52;22.20;99.90
20512;DHT22;10414;52.074;5.126;2023-10-09T15:26:20;22.30;99.90
20512;DHT22;10414;52.074;5.126;2023-10-09T15:28:48;22.30;99.90
20512;DHT22;10414;52.074;5.126;2023-10-09T15:31:16;22.40;99.90
20512;DHT22;10414;52.074;5.126;2023-10-09T15:33:44;22.30;99.90
20512;DHT22;10414;52.074;5.126;2023-10-09T15:36:17;22.20;99.90
20512;DHT22;10414;52.074;5.126;2023-10-09T15:38:46;22.20;99.90
20512;DHT22;10414;52.074;5.126;2023-10-09T15:41:14;21.90;99.90
20512;DHT22;10414;52.074;5.126;2023-10-09T15:43:41;22.10;99.90
20512;DHT22;10414;52.074;5.126;2023-10-09T15:46:11;22.20;99.90
20512;DHT22;10414;52.074;5.126;2023-10-09T15:48:40;21.90;99.90
20512;DHT22;10414;52.074;5.126;2023-10-09T15:51:10;21.90;99.90
20512;DHT22;10414;52.074;5.126;2023-10-09T15:53:42;21.90;99.90
20512;DHT22;10414;52.074;5.126;2023-10-09T15:56:09;21.60;99.90
20512;DHT22;10414;52.074;5.126;2023-10-09T15:58:38;21.50;99.90
20512;DHT22;10414;52.074;5.126;2023-10-09T16:01:11;21.50;99.90
20512;DHT22;10414;52.074;5.126;2023-10-09T16:03:45;21.20;99.90
20512;DHT22;10414;52.074;5.126;2023-10-09T16:06:14;21.20;99.90
20512;DHT22;10414;52.074;5.126;2023-10-09T16:08:47;21.30;99.90
20512;DHT22;10414;52.074;5.126;2023-10-09T16:11:19;21.10;99.90
20512;DHT22;10414;52.074;5.126;2023-10-09T16:13:48;21.20;99.90
20512;DHT22;10414;52.074;5.126;2023-10-09T16:16:24;21.40;99.90